Time,TemperatureF,DewpointF,PressureIn,WindDirection,WindDirectionDegrees,WindSpeedMPH,WindSpeedGustMPH,Humidity,HourlyPrecipIn,Conditions,Clouds,dailyrainin,SoftwareType,DateUTC
2013-02-23 00:08:00,27.4,18.9,29.97,South,180,0.0,7.0,70,0.00,,,0.08,Wunderground v.1.15,2013-02-23 05:08:00,
2013-02-23 00:18:00,27.8,19.3,29.97,SSE,148,2.0,7.0,70,0.00,,,0.00,Wunderground v.1.15,2013-02-23 05:18:00,
2013-02-23 00:28:00,27.8,19.3,29.97,SE,136,2.0,2.0,70,0.00,,,0.00,Wunderground v.1.15,2013-02-23 05:28:00,
2013-02-23 00:38:00,27.5,19.3,29.97,South,174,2.0,3.0,71,0.00,,,0.00,Wunderground v.1.15,2013-02-23 05:38:00,
2013-02-23 00:48:00,27.1,19.6,29.96,South,178,4.0,7.0,73,0.00,,,0.00,Wunderground v.1.15,2013-02-23 05:48:00,
2013-02-23 00:58:00,27.1,19.6,29.95,SSE,158,4.0,4.0,73,0.00,,,0.00,Wunderground v.1.15,2013-02-23 05:58:00,
2013-02-23 01:08:00,26.9,19.7,29.95,SE,136,4.0,4.0,74,0.00,,,0.00,Wunderground v.1.15,2013-02-23 06:08:00,
2013-02-23 01:28:00,27.5,19.7,29.95,SE,132,1.0,1.0,72,0.00,,,0.00,Wunderground v.1.15,2013-02-23 06:28:00,
2013-02-23 01:38:00,27.7,19.8,29.94,SE,146,2.0,2.0,72,0.00,,,0.00,Wunderground v.1.15,2013-02-23 06:38:00,
2013-02-23 01:48:00,27.7,19.8,29.94,SE,127,1.0,2.0,72,0.00,,,0.00,Wunderground v.1.15,2013-02-23 06:48:00,
2013-02-23 01:58:00,27.8,20.3,29.95,SSE,151,2.0,3.0,73,0.00,,,0.00,Wunderground v.1.15,2013-02-23 06:58:00,
2013-02-23 02:08:00,27.6,20.4,29.94,South,182,2.0,9.0,74,0.00,,,0.00,Wunderground v.1.15,2013-02-23 07:08:00,
2013-02-23 02:18:00,27.5,20.6,29.94,SSE,167,1.0,9.0,75,0.00,,,0.00,Wunderground v.1.15,2013-02-23 07:18:00,
2013-02-23 02:28:00,27.5,20.3,29.93,South,182,2.0,2.0,74,0.00,,,0.00,Wunderground v.1.15,2013-02-23 07:28:00,
2013-02-23 02:38:00,27.5,20.6,29.93,South,169,2.0,2.0,75,0.00,,,0.00,Wunderground v.1.15,2013-02-23 07:38:00,
2013-02-23 02:48:00,27.4,20.8,29.92,SSE,164,2.0,3.0,76,0.00,,,0.00,Wunderground v.1.15,2013-02-23 07:48:00,
2013-02-23 02:58:00,27.7,20.8,29.92,South,182,6.0,6.0,75,0.00,,,0.00,Wunderground v.1.15,2013-02-23 07:58:00,
2013-02-23 03:08:00,27.8,20.9,29.92,South,182,7.0,7.0,75,0.00,,,0.00,Wunderground v.1.15,2013-02-23 08:08:00,
2013-02-23 03:18:00,27.8,21.2,29.91,SSW,204,6.0,8.0,76,0.00,,,0.00,Wunderground v.1.15,2013-02-23 08:18:00,
2013-02-23 03:28:00,27.8,21.2,29.91,South,175,8.0,8.0,76,0.00,,,0.00,Wunderground v.1.15,2013-02-23 08:28:00,
2013-02-23 03:38:00,27.7,21.4,29.92,SSW,192,7.0,7.0,77,0.00,,,0.00,Wunderground v.1.15,2013-02-23 08:38:00,
2013-02-23 03:48:00,27.6,21.3,29.91,South,188,6.0,9.0,77,0.00,,,0.00,Wunderground v.1.15,2013-02-23 08:48:00,
2013-02-23 03:58:00,27.5,21.5,29.91,South,180,5.0,5.0,78,0.00,,,0.00,Wunderground v.1.15,2013-02-23 08:58:00,
2013-02-23 04:08:00,27.4,21.4,29.91,South,190,4.0,15.0,78,0.00,,,0.00,Wunderground v.1.15,2013-02-23 09:08:00,
2013-02-23 04:18:00,27.4,21.4,29.90,SE,144,4.0,4.0,78,0.00,,,0.00,Wunderground v.1.15,2013-02-23 09:18:00,
2013-02-23 04:28:00,27.2,21.5,29.90,South,186,3.0,5.0,79,0.00,,,0.00,Wunderground v.1.15,2013-02-23 09:28:00,
2013-02-23 04:38:00,27.2,21.5,29.91,South,183,2.0,5.0,79,0.00,,,0.00,Wunderground v.1.15,2013-02-23 09:38:00,
2013-02-23 04:48:00,27.2,21.5,29.91,SSW,206,4.0,6.0,79,0.00,,,0.00,Wunderground v.1.15,2013-02-23 09:48:00,
2013-02-23 04:58:00,27.2,21.5,29.91,South,187,4.0,4.0,79,0.00,,,0.00,Wunderground v.1.15,2013-02-23 09:58:00,
2013-02-23 05:08:00,27.2,21.5,29.91,South,190,5.0,5.0,79,0.00,,,0.00,Wunderground v.1.15,2013-02-23 10:08:00,
2013-02-23 05:18:00,27.1,21.5,29.90,SSE,167,5.0,5.0,79,0.00,,,0.00,Wunderground v.1.15,2013-02-23 10:18:00,
2013-02-23 05:28:00,27.2,21.5,29.90,South,170,6.0,7.0,79,0.00,,,0.00,Wunderground v.1.15,2013-02-23 10:28:00,
2013-02-23 05:38:00,27.1,20.8,29.90,SW,223,5.0,6.0,77,0.00,,,0.00,Wunderground v.1.15,2013-02-23 10:38:00,
2013-02-23 05:48:00,27.2,20.6,29.90,South,182,4.0,5.0,76,0.00,,,0.00,Wunderground v.1.15,2013-02-23 10:48:00,
2013-02-23 05:58:00,27.2,20.6,29.90,South,178,3.0,3.0,76,0.00,,,0.00,Wunderground v.1.15,2013-02-23 10:58:00,
2013-02-23 06:08:00,27.0,20.7,29.89,South,175,3.0,3.0,77,0.00,,,0.00,Wunderground v.1.15,2013-02-23 11:08:00,
2013-02-23 06:18:00,26.9,20.7,29.89,SE,142,1.0,11.0,77,0.00,,,0.00,Wunderground v.1.15,2013-02-23 11:18:00,
2013-02-23 06:28:00,27.2,20.6,29.89,South,171,5.0,5.0,76,0.00,,,0.00,Wunderground v.1.15,2013-02-23 11:28:00,
2013-02-23 06:38:00,27.0,20.7,29.89,South,190,2.0,3.0,77,0.00,,,0.00,Wunderground v.1.15,2013-02-23 11:38:00,
2013-02-23 06:48:00,26.9,20.7,29.88,South,180,3.0,3.0,77,0.00,,,0.00,Wunderground v.1.15,2013-02-23 11:48:00,
2013-02-23 06:58:00,27.0,20.7,29.88,South,186,5.0,5.0,77,0.00,,,0.00,Wunderground v.1.15,2013-02-23 11:58:00,
2013-02-23 07:08:00,27.1,20.8,29.88,SW,217,4.0,12.0,77,0.00,,,0.00,Wunderground v.1.15,2013-02-23 12:08:00,
2013-02-23 07:18:00,27.2,20.9,29.88,SSW,195,5.0,12.0,77,0.00,,,0.00,Wunderground v.1.15,2013-02-23 12:18:00,
2013-02-23 07:28:00,27.4,21.1,29.88,SSW,212,6.0,6.0,77,0.00,,,0.00,Wunderground v.1.15,2013-02-23 12:28:00,
2013-02-23 07:38:00,27.4,21.4,29.87,South,184,8.0,8.0,78,0.00,,,0.00,Wunderground v.1.15,2013-02-23 12:38:00,
2013-02-23 07:48:00,27.5,21.5,29.88,SSW,205,7.0,7.0,78,0.00,,,0.00,Wunderground v.1.15,2013-02-23 12:48:00,
2013-02-23 07:58:00,27.6,21.6,29.88,SSW,198,7.0,7.0,78,0.00,,,0.00,Wunderground v.1.15,2013-02-23 12:58:00,
2013-02-23 08:08:00,27.7,22.0,29.88,SSW,198,8.0,8.0,79,0.00,,,0.00,Wunderground v.1.15,2013-02-23 13:08:00,
2013-02-23 08:18:00,27.8,22.1,29.88,South,184,9.0,9.0,79,0.00,,,0.00,Wunderground v.1.15,2013-02-23 13:18:00,
2013-02-23 08:28:00,27.9,22.2,29.87,South,185,8.0,8.0,79,0.00,,,0.00,Wunderground v.1.15,2013-02-23 13:28:00,
2013-02-23 08:38:00,27.9,22.8,29.87,South,181,9.0,15.0,81,0.00,,,0.00,Wunderground v.1.15,2013-02-23 13:38:00,
2013-02-23 08:48:00,28.0,22.9,29.86,South,180,11.0,11.0,81,0.00,,,0.00,Wunderground v.1.15,2013-02-23 13:48:00,
2013-02-23 09:38:00,28.5,23.7,29.86,SSE,154,10.0,10.0,82,0.00,,,0.00,Wunderground v.1.15,2013-02-23 14:38:00,
2013-02-23 09:48:00,28.8,23.7,29.84,South,182,8.0,10.0,81,0.00,,,0.00,Wunderground v.1.15,2013-02-23 14:48:00,
2013-02-23 09:58:00,28.9,23.8,29.84,South,182,8.0,8.0,81,0.00,,,0.00,Wunderground v.1.15,2013-02-23 14:58:00,
2013-02-23 10:28:00,29.0,24.2,29.82,South,182,8.0,8.0,82,0.00,,,0.00,Wunderground v.1.15,2013-02-23 15:28:00,
2013-02-23 11:08:00,29.0,24.8,29.81,SSW,199,10.0,21.0,84,0.00,,,0.00,Wunderground v.1.15,2013-02-23 16:08:00,
2013-02-23 11:18:00,29.0,24.5,29.81,South,175,8.0,21.0,83,0.00,,,0.00,Wunderground v.1.15,2013-02-23 16:18:00,
2013-02-23 11:38:00,29.1,24.6,29.80,South,182,9.0,13.0,83,0.00,,,0.00,Wunderground v.1.15,2013-02-23 16:38:00,
2013-02-23 11:48:00,29.2,25.0,29.79,SSW,192,9.0,9.0,84,0.00,,,0.00,Wunderground v.1.15,2013-02-23 16:48:00,
2013-02-23 11:58:00,29.2,25.0,29.78,SSE,166,7.0,7.0,84,0.00,,,0.00,Wunderground v.1.15,2013-02-23 16:58:00,
2013-02-23 12:08:00,29.3,25.1,29.77,South,175,6.0,6.0,84,0.00,,,0.00,Wunderground v.1.15,2013-02-23 17:08:00,
2013-02-23 12:18:00,29.5,25.3,29.77,SSW,198,7.0,21.0,84,0.00,,,0.00,Wunderground v.1.15,2013-02-23 17:18:00,
2013-02-23 12:28:00,29.4,25.4,29.76,South,189,7.0,12.0,85,0.00,,,0.00,Wunderground v.1.15,2013-02-23 17:28:00,
2013-02-23 12:38:00,29.6,25.9,29.76,SSE,153,7.0,7.0,86,0.00,,,0.00,Wunderground v.1.15,2013-02-23 17:38:00,
2013-02-23 12:48:00,29.7,26.3,29.76,SE,135,4.0,4.0,87,0.00,,,0.00,Wunderground v.1.15,2013-02-23 17:48:00,
2013-02-23 13:08:00,29.6,26.8,29.75,South,183,3.0,19.0,89,0.00,,,0.00,Wunderground v.1.15,2013-02-23 18:08:00,
2013-02-23 16:09:00,28.9,27.4,29.71,South,169,2.0,2.0,94,0.00,,,0.00,Wunderground v.1.15,2013-02-23 21:09:00,
2013-02-23 16:19:00,28.9,27.4,29.71,South,175,1.0,15.0,94,0.00,,,0.00,Wunderground v.1.15,2013-02-23 21:19:00,
2013-02-23 16:29:00,28.9,27.4,29.71,South,173,1.0,1.0,94,0.00,,,0.00,Wunderground v.1.15,2013-02-23 21:29:00,
2013-02-23 16:39:00,28.9,27.4,29.71,SSW,201,0.0,0.0,94,0.00,,,0.00,Wunderground v.1.15,2013-02-23 21:39:00,
2013-02-23 16:49:00,28.9,27.6,29.71,SE,129,0.0,0.0,95,0.00,,,0.00,Wunderground v.1.15,2013-02-23 21:49:00,
2013-02-23 16:59:00,28.9,27.6,29.71,SSW,199,1.0,1.0,95,0.00,,,0.00,Wunderground v.1.15,2013-02-23 21:59:00,
2013-02-23 17:09:00,28.9,27.6,29.71,SSW,198,0.0,8.0,95,0.00,,,0.00,Wunderground v.1.15,2013-02-23 22:09:00,
2013-02-23 17:19:00,28.8,27.5,29.70,SSW,198,0.0,8.0,95,0.00,,,0.00,Wunderground v.1.15,2013-02-23 22:19:00,
2013-02-23 17:29:00,28.8,27.5,29.70,SSW,198,0.0,0.0,95,0.00,,,0.00,Wunderground v.1.15,2013-02-23 22:29:00,
2013-02-23 17:39:00,28.8,27.5,29.70,SSW,195,1.0,1.0,95,0.00,,,0.00,Wunderground v.1.15,2013-02-23 22:39:00,
2013-02-23 17:49:00,28.8,27.5,29.70,South,189,1.0,3.0,95,0.00,,,0.00,Wunderground v.1.15,2013-02-23 22:49:00,
2013-02-23 17:59:00,28.8,27.5,29.70,South,182,2.0,3.0,95,0.00,,,0.00,Wunderground v.1.15,2013-02-23 22:59:00,
2013-02-23 18:09:00,28.9,27.6,29.70,SSW,196,4.0,4.0,95,0.00,,,0.00,Wunderground v.1.15,2013-02-23 23:09:00,
2013-02-23 18:19:00,29.0,27.7,29.70,SW,215,5.0,5.0,95,0.00,,,0.00,Wunderground v.1.15,2013-02-23 23:19:00,
2013-02-23 18:29:00,29.0,27.7,29.70,South,180,5.0,6.0,95,0.00,,,0.00,Wunderground v.1.15,2013-02-23 23:29:00,
2013-02-23 18:39:00,29.0,27.7,29.69,South,180,5.0,5.0,95,0.00,,,0.00,Wunderground v.1.15,2013-02-23 23:39:00,
2013-02-23 18:49:00,29.0,27.7,29.70,South,191,4.0,4.0,95,0.00,,,0.00,Wunderground v.1.15,2013-02-23 23:49:00,
2013-02-23 18:59:00,29.0,27.7,29.70,South,186,3.0,3.0,95,0.00,,,0.00,Wunderground v.1.15,2013-02-23 23:59:00,
2013-02-23 19:09:00,29.0,27.7,29.69,South,169,3.0,8.0,95,0.00,,,0.00,Wunderground v.1.15,2013-02-24 00:09:00,
2013-02-23 19:19:00,29.0,27.7,29.69,South,177,4.0,8.0,95,0.00,,,0.00,Wunderground v.1.15,2013-02-24 00:19:00,
2013-02-23 19:29:00,29.0,27.7,29.69,South,188,4.0,4.0,95,0.00,,,0.00,Wunderground v.1.15,2013-02-24 00:29:00,
2013-02-23 19:39:00,29.0,27.7,29.69,SSW,204,4.0,4.0,95,0.00,,,0.00,Wunderground v.1.15,2013-02-24 00:39:00,
2013-02-23 19:49:00,29.0,27.7,29.69,South,184,4.0,6.0,95,0.00,,,0.00,Wunderground v.1.15,2013-02-24 00:49:00,
2013-02-23 19:59:00,29.0,27.7,29.69,South,185,4.0,5.0,95,0.00,,,0.00,Wunderground v.1.15,2013-02-24 00:59:00,
2013-02-23 20:09:00,29.0,27.7,29.69,South,188,4.0,4.0,95,0.00,,,0.00,Wunderground v.1.15,2013-02-24 01:09:00,
2013-02-23 20:19:00,29.0,27.7,29.69,SSW,209,3.0,10.0,95,0.00,,,0.00,Wunderground v.1.15,2013-02-24 01:19:00,
2013-02-23 20:29:00,29.0,27.7,29.69,South,183,3.0,3.0,95,0.00,,,0.00,Wunderground v.1.15,2013-02-24 01:29:00,
2013-02-23 20:39:00,29.1,27.8,29.69,South,190,3.0,4.0,95,0.00,,,0.00,Wunderground v.1.15,2013-02-24 01:39:00,
2013-02-23 20:49:00,29.1,27.8,29.68,SSW,207,5.0,5.0,95,0.00,,,0.00,Wunderground v.1.15,2013-02-24 01:49:00,
2013-02-23 20:59:00,29.1,27.8,29.68,SSW,207,4.0,4.0,95,0.00,,,0.00,Wunderground v.1.15,2013-02-24 01:59:00,
2013-02-23 21:09:00,29.2,27.9,29.68,SSW,203,4.0,9.0,95,0.00,,,0.00,Wunderground v.1.15,2013-02-24 02:09:00,
2013-02-23 21:19:00,29.2,27.9,29.68,SW,222,5.0,5.0,95,0.00,,,0.00,Wunderground v.1.15,2013-02-24 02:19:00,
2013-02-23 21:29:00,29.3,28.0,29.67,South,182,3.0,3.0,95,0.00,,,0.00,Wunderground v.1.15,2013-02-24 02:29:00,
2013-02-23 21:39:00,29.3,28.0,29.68,South,180,2.0,2.0,95,0.00,,,0.00,Wunderground v.1.15,2013-02-24 02:39:00,
2013-02-23 21:49:00,29.2,27.9,29.67,South,180,1.0,3.0,95,0.00,,,0.00,Wunderground v.1.15,2013-02-24 02:49:00,
2013-02-23 21:59:00,29.2,27.9,29.67,SSW,192,0.0,0.0,95,0.00,,,0.00,Wunderground v.1.15,2013-02-24 02:59:00,
2013-02-23 22:09:00,29.2,27.9,29.66,South,176,1.0,9.0,95,0.00,,,0.00,Wunderground v.1.15,2013-02-24 03:09:00,
2013-02-23 22:19:00,29.2,28.2,29.65,South,180,3.0,9.0,96,0.00,,,0.00,Wunderground v.1.15,2013-02-24 03:19:00,
2013-02-23 22:29:00,29.2,28.2,29.65,SW,223,3.0,3.0,96,0.00,,,0.00,Wunderground v.1.15,2013-02-24 03:29:00,
2013-02-23 22:39:00,29.2,28.2,29.65,SSW,196,3.0,3.0,96,0.00,,,0.00,Wunderground v.1.15,2013-02-24 03:39:00,
2013-02-23 22:49:00,29.2,28.2,29.64,South,173,4.0,4.0,96,0.00,,,0.00,Wunderground v.1.15,2013-02-24 03:49:00,
2013-02-23 22:59:00,29.2,28.2,29.64,SSW,202,4.0,4.0,96,0.00,,,0.00,Wunderground v.1.15,2013-02-24 03:59:00,
2013-02-23 23:09:00,29.2,28.2,29.64,SSW,194,4.0,9.0,96,0.00,,,0.00,Wunderground v.1.15,2013-02-24 04:09:00,
2013-02-23 23:19:00,29.2,27.9,29.63,SSW,208,4.0,9.0,95,0.00,,,0.00,Wunderground v.1.15,2013-02-24 04:19:00,
2013-02-23 23:29:00,29.3,28.0,29.63,SSW,202,4.0,4.0,95,0.00,,,0.00,Wunderground v.1.15,2013-02-24 04:29:00,
2013-02-23 23:39:00,29.2,27.9,29.63,SSW,210,3.0,3.0,95,0.00,,,0.00,Wunderground v.1.15,2013-02-24 04:39:00,
2013-02-23 23:49:00,29.3,28.0,29.63,SSW,205,3.0,3.0,95,0.00,,,0.00,Wunderground v.1.15,2013-02-24 04:49:00,
2013-02-23 23:59:00,29.3,28.0,29.63,SSW,196,3.0,3.0,95,0.00,,,0.00,Wunderground v.1.15,2013-02-24 04:59:00,